sensor_id;sensor_type;location;lat;lon;timestamp;pressure;altitude;pressure_sealevel;temperature;humidity
4012;BME280;2020;48.682;9.024;2023-05-16T00:01:06;96123.69;;;11.69;91.23
4012;BME280;2020;48.682;9.024;2023-05-16T00:03:33;96129.72;;;11.70;91.05
4012;BME280;2020;48.682;9.024;2023-05-16T00:05:58;96120.78;;;11.64;91.77
4012;BME280;2020;48.682;9.024;2023-05-16T00:08:26;96124.72;;;11.60;92.39
4012;BME280;2020;48.682;9.024;2023-05-16T00:10:52;96126.34;;;11.61;92.46
4012;BME280;2020;48.682;9.024;2023-05-16T00:13:17;96117.25;;;11.57;91.89
4012;BME280;2020;48.682;9.024;2023-05-16T00:15:46;96118.91;;;11.50;92.41
4012;BME280;2020;48.682;9.024;2023-05-16T00:18:11;96114.47;;;11.50;92.16
4012;BME280;2020;48.682;9.024;2023-05-16T00:20:40;96117.28;;;11.49;91.57
4012;BME280;2020;48.682;9.024;2023-05-16T00:23:06;96109.16;;;11.44;92.34
4012;BME280;2020;48.682;9.024;2023-05-16T00:25:31;96110.13;;;11.43;91.63
4012;BME280;2020;48.682;9.024;2023-05-16T00:27:56;96113.41;;;11.36;92.42
4012;BME280;2020;48.682;9.024;2023-05-16T00:30:22;96118.28;;;11.39;92.61
4012;BME280;2020;48.682;9.024;2023-05-16T00:32:47;96103.97;;;11.35;91.38
4012;BME280;2020;48.682;9.024;2023-05-16T00:35:12;96116.03;;;11.36;90.91
4012;BME280;2020;48.682;9.024;2023-05-16T00:37:38;96108.66;;;11.40;90.69
4012;BME280;2020;48.682;9.024;2023-05-16T00:40:03;96112.75;;;11.43;90.57
4012;BME280;2020;48.682;9.024;2023-05-16T00:42:29;96104.28;;;11.40;90.56
4012;BME280;2020;48.682;9.024;2023-05-16T00:44:55;96107.88;;;11.39;90.25
4012;BME280;2020;48.682;9.024;2023-05-16T00:47:20;96106.59;;;11.35;89.77
4012;BME280;2020;48.682;9.024;2023-05-16T00:49:46;96109.53;;;11.32;90.16
4012;BME280;2020;48.682;9.024;2023-05-16T00:52:11;96105.63;;;11.28;90.96
4012;BME280;2020;48.682;9.024;2023-05-16T00:54:37;96104.97;;;11.26;91.08
4012;BME280;2020;48.682;9.024;2023-05-16T00:57:03;96107.91;;;11.23;91.00
4012;BME280;2020;48.682;9.024;2023-05-16T00:59:29;96103.69;;;11.14;91.96
4012;BME280;2020;48.682;9.024;2023-05-16T01:01:54;96102.75;;;11.06;92.04
4012;BME280;2020;48.682;9.024;2023-05-16T01:04:20;96108.28;;;11.03;92.14
4012;BME280;2020;48.682;9.024;2023-05-16T01:06:46;96109.91;;;11.04;92.28
4012;BME280;2020;48.682;9.024;2023-05-16T01:09:12;96106.66;;;11.02;92.50
4012;BME280;2020;48.682;9.024;2023-05-16T01:17:35;96107.97;;;10.98;93.08
4012;BME280;2020;48.682;9.024;2023-05-16T01:20:16;96113.53;;;10.87;93.71
4012;BME280;2020;48.682;9.024;2023-05-16T01:25:31;96115.50;;;10.85;94.23
4012;BME280;2020;48.682;9.024;2023-05-16T01:28:02;96115.34;;;10.86;94.02
4012;BME280;2020;48.682;9.024;2023-05-16T01:30:33;96111.91;;;10.86;94.21
4012;BME280;2020;48.682;9.024;2023-05-16T01:32:59;96120.69;;;10.85;94.04
4012;BME280;2020;48.682;9.024;2023-05-16T01:35:24;96110.47;;;10.75;94.75
4012;BME280;2020;48.682;9.024;2023-05-16T01:40:41;96115.38;;;10.70;95.22
4012;BME280;2020;48.682;9.024;2023-05-16T01:43:16;96110.97;;;10.62;95.16
4012;BME280;2020;48.682;9.024;2023-05-16T01:45:52;96120.72;;;10.68;95.22
4012;BME280;2020;48.682;9.024;2023-05-16T01:48:22;96115.84;;;10.65;95.20
4012;BME280;2020;48.682;9.024;2023-05-16T01:50:53;96116.50;;;10.59;94.97
4012;BME280;2020;48.682;9.024;2023-05-16T01:53:28;96115.84;;;10.65;94.60
4012;BME280;2020;48.682;9.024;2023-05-16T01:55:59;96117.00;;;10.62;95.60
4012;BME280;2020;48.682;9.024;2023-05-16T01:58:28;96130.31;;;10.59;94.83
4012;BME280;2020;48.682;9.024;2023-05-16T02:01:00;96114.06;;;10.57;94.70
4012;BME280;2020;48.682;9.024;2023-05-16T02:03:26;96131.16;;;10.51;95.51
4012;BME280;2020;48.682;9.024;2023-05-16T02:05:52;96119.13;;;10.50;95.30
4012;BME280;2020;48.682;9.024;2023-05-16T02:08:17;96122.38;;;10.52;94.62
4012;BME280;2020;48.682;9.024;2023-05-16T02:10:42;96124.66;;;10.47;94.98
4012;BME280;2020;48.682;9.024;2023-05-16T02:13:08;96126.88;;;10.34;95.92
4012;BME280;2020;48.682;9.024;2023-05-16T02:15:33;96123.78;;;10.30;96.12
4012;BME280;2020;48.682;9.024;2023-05-16T02:17:58;96130.13;;;10.28;96.43
4012;BME280;2020;48.682;9.024;2023-05-16T02:20:24;96127.03;;;10.32;95.86
4012;BME280;2020;48.682;9.024;2023-05-16T02:22:49;96133.41;;;10.38;95.29
4012;BME280;2020;48.682;9.024;2023-05-16T02:25:14;96129.97;;;10.37;95.53
4012;BME280;2020;48.682;9.024;2023-05-16T02:27:40;96123.97;;;10.37;95.15
4012;BME280;2020;48.682;9.024;2023-05-16T02:30:08;96127.88;;;10.33;95.56
4012;BME280;2020;48.682;9.024;2023-05-16T02:32:33;96128.19;;;10.30;96.03
4012;BME280;2020;48.682;9.024;2023-05-16T02:34:58;96130.94;;;10.28;96.51
4012;BME280;2020;48.682;9.024;2023-05-16T02:37:24;96128.19;;;10.30;96.73
4012;BME280;2020;48.682;9.024;2023-05-16T02:39:49;96124.63;;;10.31;96.21
4012;BME280;2020;48.682;9.024;2023-05-16T02:42:14;96130.13;;;10.28;96.44
4012;BME280;2020;48.682;9.024;2023-05-16T02:44:39;96120.72;;;10.27;96.65
4012;BME280;2020;48.682;9.024;2023-05-16T02:47:05;96120.06;;;10.16;97.28
4012;BME280;2020;48.682;9.024;2023-05-16T02:49:30;96117.91;;;10.12;97.71
4012;BME280;2020;48.682;9.024;2023-05-16T02:51:55;96116.94;;;10.04;98.32
4012;BME280;2020;48.682;9.024;2023-05-16T02:54:21;96122.31;;;10.03;98.50
4012;BME280;2020;48.682;9.024;2023-05-16T02:56:47;96120.38;;;10.05;98.33
4012;BME280;2020;48.682;9.024;2023-05-16T02:59:12;96123.94;;;10.04;98.64
4012;BME280;2020;48.682;9.024;2023-05-16T03:01:37;96119.06;;;10.01;98.90
4012;BME280;2020;48.682;9.024;2023-05-16T03:04:03;96123.63;;;10.07;98.81
4012;BME280;2020;48.682;9.024;2023-05-16T03:06:28;96124.91;;;10.03;98.84
4012;BME280;2020;48.682;9.024;2023-05-16T03:08:54;96122.63;;;10.00;99.33
4012;BME280;2020;48.682;9.024;2023-05-16T03:11:19;96118.75;;;10.04;98.97
4012;BME280;2020;48.682;9.024;2023-05-16T03:13:46;96134.03;;;10.07;98.74
4012;BME280;2020;48.682;9.024;2023-05-16T03:16:11;96120.03;;;10.00;99.10
4012;BME280;2020;48.682;9.024;2023-05-16T03:18:36;96121.34;;;9.95;100.00
4012;BME280;2020;48.682;9.024;2023-05-16T03:21:02;96124.72;;;9.88;100.00
4012;BME280;2020;48.682;9.024;2023-05-16T03:23:27;96121.00;;;9.99;100.00
4012;BME280;2020;48.682;9.024;2023-05-16T03:25:53;96125.88;;;10.02;99.84
4012;BME280;2020;48.682;9.024;2023-05-16T03:28:18;96125.19;;;9.91;99.92
4012;BME280;2020;48.682;9.024;2023-05-16T03:30:43;96129.41;;;9.92;100.00
4012;BME280;2020;48.682;9.024;2023-05-16T03:33:08;96128.97;;;9.97;100.00
4012;BME280;2020;48.682;9.024;2023-05-16T03:35:35;96132.00;;;9.92;100.00
4012;BME280;2020;48.682;9.024;2023-05-16T03:38:01;96123.94;;;9.95;100.00
4012;BME280;2020;48.682;9.024;2023-05-16T03:40:26;96126.81;;;9.92;100.00
4012;BME280;2020;48.682;9.024;2023-05-16T03:42:51;96131.34;;;9.82;100.00
4012;BME280;2020;48.682;9.024;2023-05-16T03:45:17;96126.47;;;9.79;100.00
4012;BME280;2020;48.682;9.024;2023-05-16T03:47:42;96131.03;;;9.85;100.00
4012;BME280;2020;48.682;9.024;2023-05-16T03:50:08;96130.38;;;9.91;100.00
4012;BME280;2020;48.682;9.024;2023-05-16T03:52:34;96122.59;;;9.91;100.00
4012;BME280;2020;48.682;9.024;2023-05-16T03:54:59;96121.94;;;9.89;100.00
4012;BME280;2020;48.682;9.024;2023-05-16T03:57:26;96124.41;;;9.91;100.00
4012;BME280;2020;48.682;9.024;2023-05-16T03:59:51;96126.81;;;9.92;100.00
4012;BME280;2020;48.682;9.024;2023-05-16T04:02:17;96129.59;;;9.99;100.00
4012;BME280;2020;48.682;9.024;2023-05-16T04:04:42;96130.75;;;9.97;100.00
4012;BME280;2020;48.682;9.024;2023-05-16T04:07:07;96134.97;;;9.98;100.00
4012;BME280;2020;48.682;9.024;2023-05-16T04:09:32;96132.53;;;9.96;100.00
4012;BME280;2020;48.682;9.024;2023-05-16T04:11:58;96131.41;;;9.99;100.00
4012;BME280;2020;48.682;9.024;2023-05-16T04:14:26;96134.78;;;9.91;100.00
4012;BME280;2020;48.682;9.024;2023-05-16T04:16:51;96140.78;;;9.91;100.00
4012;BME280;2020;48.682;9.024;2023-05-16T04:19:16;96146.63;;;9.85;100.00
4012;BME280;2020;48.682;9.024;2023-05-16T04:21:42;96142.72;;;9.89;100.00
4012;BME280;2020;48.682;9.024;2023-05-16T04:24:07;96141.09;;;9.88;100.00
4012;BME280;2020;48.682;9.024;2023-05-16T04:26:32;96140.78;;;9.83;100.00
4012;BME280;2020;48.682;9.024;2023-05-16T04:28:58;96147.44;;;9.86;100.00
4012;BME280;2020;48.682;9.024;2023-05-16T04:31:26;96148.56;;;9.83;100.00
4012;BME280;2020;48.682;9.024;2023-05-16T04:33:51;96152.66;;;9.86;100.00
4012;BME280;2020;48.682;9.024;2023-05-16T04:36:17;96142.88;;;9.79;100.00
4012;BME280;2020;48.682;9.024;2023-05-16T04:38:42;96149.53;;;9.82;100.00
4012;BME280;2020;48.682;9.024;2023-05-16T04:41:07;96148.56;;;9.83;100.00
4012;BME280;2020;48.682;9.024;2023-05-16T04:43:33;96153.13;;;9.89;100.00
4012;BME280;2020;48.682;9.024;2023-05-16T04:45:59;96157.34;;;9.90;100.00
4012;BME280;2020;48.682;9.024;2023-05-16T04:48:24;96151.50;;;9.88;100.00
4012;BME280;2020;48.682;9.024;2023-05-16T04:50:49;96163.53;;;9.89;100.00
4012;BME280;2020;48.682;9.024;2023-05-16T04:53:15;96160.59;;;9.84;100.00
4012;BME280;2020;48.682;9.024;2023-05-16T04:55:41;96163.19;;;9.84;100.00
4012;BME280;2020;48.682;9.024;2023-05-16T04:58:06;96163.53;;;9.89;100.00
4012;BME280;2020;48.682;9.024;2023-05-16T05:00:32;96160.78;;;9.91;100.00
4012;BME280;2020;48.682;9.024;2023-05-16T05:02:57;96165.47;;;9.87;100.00
4012;BME280;2020;48.682;9.024;2023-05-16T05:05:22;96166.78;;;9.91;100.00
4012;BME280;2020;48.682;9.024;2023-05-16T05:07:48;96166.78;;;9.91;100.00
4012;BME280;2020;48.682;9.024;2023-05-16T05:10:13;96174.13;;;9.96;100.00
4012;BME280;2020;48.682;9.024;2023-05-16T05:12:38;96179.84;;;10.00;100.00
4012;BME280;2020;48.682;9.024;2023-05-16T05:15:04;96176.25;;;10.01;100.00
4012;BME280;2020;48.682;9.024;2023-05-16T05:17:30;96182.09;;;9.94;100.00
4012;BME280;2020;48.682;9.024;2023-05-16T05:19:55;96189.41;;;9.99;100.00
4012;BME280;2020;48.682;9.024;2023-05-16T05:22:21;96177.88;;;10.02;100.00
4012;BME280;2020;48.682;9.024;2023-05-16T05:24:46;96172.69;;;10.02;100.00
4012;BME280;2020;48.682;9.024;2023-05-16T05:27:11;96179.50;;;10.03;100.00
4012;BME280;2020;48.682;9.024;2023-05-16T05:29:37;96175.63;;;10.07;100.00
4012;BME280;2020;48.682;9.024;2023-05-16T05:32:02;96177.88;;;10.02;100.00
4012;BME280;2020;48.682;9.024;2023-05-16T05:34:28;96175.94;;;10.04;100.00
4012;BME280;2020;48.682;9.024;2023-05-16T05:36:53;96170.09;;;10.10;100.00
4012;BME280;2020;48.682;9.024;2023-05-16T05:39:18;96180.81;;;10.07;100.00
4012;BME280;2020;48.682;9.024;2023-05-16T05:41:43;96174.00;;;10.06;100.00
4012;BME280;2020;48.682;9.024;2023-05-16T05:44:09;96179.50;;;10.03;100.00
4012;BME280;2020;48.682;9.024;2023-05-16T05:46:34;96172.69;;;10.02;100.00
4012;BME280;2020;48.682;9.024;2023-05-16T05:49:00;96172.69;;;10.02;100.00
4012;BME280;2020;48.682;9.024;2023-05-16T05:51:25;96174.00;;;10.06;100.00
4012;BME280;2020;48.682;9.024;2023-05-16T05:53:51;96180.44;;;9.93;100.00
4012;BME280;2020;48.682;9.024;2023-05-16T05:56:17;96184.63;;;9.86;100.00
4012;BME280;2020;48.682;9.024;2023-05-16T05:58:42;96184.84;;;9.93;100.00
4012;BME280;2020;48.682;9.024;2023-05-16T06:01:10;96188.91;;;9.95;100.00
4012;BME280;2020;48.682;9.024;2023-05-16T06:03:35;96192.34;;;10.04;100.00
4012;BME280;2020;48.682;9.024;2023-05-16T06:06:00;96190.22;;;10.00;100.00
4012;BME280;2020;48.682;9.024;2023-05-16T06:08:26;96192.19;;;9.98;100.00
4012;BME280;2020;48.682;9.024;2023-05-16T06:10:51;96192.84;;;10.00;100.00
4012;BME280;2020;48.682;9.024;2023-05-16T06:13:16;96199.50;;;10.02;100.00
4012;BME280;2020;48.682;9.024;2023-05-16T06:15:42;96204.38;;;10.05;100.00
4012;BME280;2020;48.682;9.024;2023-05-16T06:18:07;96206.16;;;9.97;100.00
4012;BME280;2020;48.682;9.024;2023-05-16T06:20:32;96207.16;;;10.04;100.00
4012;BME280;2020;48.682;9.024;2023-05-16T06:22:57;96205.50;;;10.03;100.00
4012;BME280;2020;48.682;9.024;2023-05-16T06:25:23;96207.78;;;9.98;100.00
4012;BME280;2020;48.682;9.024;2023-05-16T06:27:48;96207.63;;;10.07;100.00
4012;BME280;2020;48.682;9.024;2023-05-16T06:30:13;96202.75;;;10.04;100.00
4012;BME280;2020;48.682;9.024;2023-05-16T06:32:40;96206.19;;;10.13;100.00
4012;BME280;2020;48.682;9.024;2023-05-16T06:35:06;96206.34;;;10.20;100.00
4012;BME280;2020;48.682;9.024;2023-05-16T06:37:31;96212.06;;;10.23;100.00
4012;BME280;2020;48.682;9.024;2023-05-16T06:39:57;96215.97;;;10.28;100.00
4012;BME280;2020;48.682;9.024;2023-05-16T06:42:23;96213.06;;;10.31;100.00
4012;BME280;2020;48.682;9.024;2023-05-16T06:44:48;96215.78;;;10.21;100.00
4012;BME280;2020;48.682;9.024;2023-05-16T06:47:14;96221.16;;;10.19;100.00
4012;BME280;2020;48.682;9.024;2023-05-16T06:49:40;96220.34;;;10.19;100.00
4012;BME280;2020;48.682;9.024;2023-05-16T06:52:05;96217.91;;;10.17;100.00
4012;BME280;2020;48.682;9.024;2023-05-16T06:54:30;96219.22;;;10.21;100.00
4012;BME280;2020;48.682;9.024;2023-05-16T06:56:56;96214.81;;;10.22;100.00
4012;BME280;2020;48.682;9.024;2023-05-16T06:59:21;96217.56;;;10.12;99.91
4012;BME280;2020;48.682;9.024;2023-05-16T07:01:46;96218.22;;;10.14;100.00
4012;BME280;2020;48.682;9.024;2023-05-16T07:04:12;96220.16;;;10.12;100.00
4012;BME280;2020;48.682;9.024;2023-05-16T07:06:37;96222.56;;;10.05;100.00
4012;BME280;2020;48.682;9.024;2023-05-16T07:09:02;96221.59;;;10.06;100.00
4012;BME280;2020;48.682;9.024;2023-05-16T07:11:28;96228.91;;;9.94;100.00
4012;BME280;2020;48.682;9.024;2023-05-16T07:13:53;96234.44;;;10.00;100.00
4012;BME280;2020;48.682;9.024;2023-05-16T07:16:19;96226.28;;;9.94;100.00
4012;BME280;2020;48.682;9.024;2023-05-16T07:18:44;96226.63;;;10.00;100.00
4012;BME280;2020;48.682;9.024;2023-05-16T07:21:10;96234.56;;;9.98;100.00
4012;BME280;2020;48.682;9.024;2023-05-16T07:23:35;96232.44;;;9.93;100.00
4012;BME280;2020;48.682;9.024;2023-05-16T07:26:00;96231.13;;;9.89;100.00
4012;BME280;2020;48.682;9.024;2023-05-16T07:28:26;96239.28;;;9.94;100.00
4012;BME280;2020;48.682;9.024;2023-05-16T07:30:52;96237.34;;;9.97;100.00
4012;BME280;2020;48.682;9.024;2023-05-16T07:33:17;96234.69;;;9.88;100.00
4012;BME280;2020;48.682;9.024;2023-05-16T07:35:42;96242.84;;;9.93;100.00
4012;BME280;2020;48.682;9.024;2023-05-16T07:38:07;96239.28;;;9.94;100.00
4012;BME280;2020;48.682;9.024;2023-05-16T07:40:33;96242.38;;;9.98;100.00
4012;BME280;2020;48.682;9.024;2023-05-16T07:42:58;96238.34;;;10.04;100.00
4012;BME280;2020;48.682;9.024;2023-05-16T07:45:23;96244.22;;;10.14;99.64
4012;BME280;2020;48.682;9.024;2023-05-16T07:47:49;96244.41;;;10.21;98.90
4012;BME280;2020;48.682;9.024;2023-05-16T07:50:14;96254.34;;;10.34;98.46
4012;BME280;2020;48.682;9.024;2023-05-16T07:52:39;96246.59;;;10.42;97.71
4012;BME280;2020;48.682;9.024;2023-05-16T07:55:05;96252.59;;;10.43;97.14
4012;BME280;2020;48.682;9.024;2023-05-16T07:57:30;96249.50;;;10.39;97.02
4012;BME280;2020;48.682;9.024;2023-05-16T07:59:56;96258.84;;;10.15;98.44
4012;BME280;2020;48.682;9.024;2023-05-16T08:02:24;96252.38;;;10.19;100.00
4012;BME280;2020;48.682;9.024;2023-05-16T08:04:54;96247.81;;;10.21;99.83
4012;BME280;2020;48.682;9.024;2023-05-16T08:07:20;96259.53;;;10.26;99.84
4012;BME280;2020;48.682;9.024;2023-05-16T08:09:45;96258.25;;;10.30;99.40
4012;BME280;2020;48.682;9.024;2023-05-16T08:12:11;96263.13;;;10.33;99.26
4012;BME280;2020;48.682;9.024;2023-05-16T08:14:36;96257.09;;;10.32;98.57
4012;BME280;2020;48.682;9.024;2023-05-16T08:17:01;96259.53;;;10.26;99.40
4012;BME280;2020;48.682;9.024;2023-05-16T08:19:26;96256.47;;;10.38;100.00
4012;BME280;2020;48.682;9.024;2023-05-16T08:21:53;96265.78;;;10.41;100.00
4012;BME280;2020;48.682;9.024;2023-05-16T08:24:18;96266.06;;;10.30;98.03
4012;BME280;2020;48.682;9.024;2023-05-16T08:26:44;96268.00;;;10.28;98.62
4012;BME280;2020;48.682;9.024;2023-05-16T08:29:10;96265.09;;;10.31;99.50
4012;BME280;2020;48.682;9.024;2023-05-16T08:31:35;96272.88;;;10.22;98.13
4012;BME280;2020;48.682;9.024;2023-05-16T08:34:00;96270.56;;;10.11;98.98
4012;BME280;2020;48.682;9.024;2023-05-16T08:36:26;96278.63;;;10.00;99.19
4012;BME280;2020;48.682;9.024;2023-05-16T08:38:54;96282.53;;;9.95;100.00
4012;BME280;2020;48.682;9.024;2023-05-16T08:41:19;96276.91;;;9.82;100.00
4012;BME280;2020;48.682;9.024;2023-05-16T08:43:45;96273.03;;;9.86;100.00
4012;BME280;2020;48.682;9.024;2023-05-16T08:46:11;96279.84;;;9.87;100.00
4012;BME280;2020;48.682;9.024;2023-05-16T08:48:37;96278.22;;;9.86;100.00
4012;BME280;2020;48.682;9.024;2023-05-16T08:51:07;96279.22;;;9.93;100.00
4012;BME280;2020;48.682;9.024;2023-05-16T08:53:38;96284.50;;;10.02;100.00
4012;BME280;2020;48.682;9.024;2023-05-16T08:56:11;96277.19;;;10.05;99.99
4012;BME280;2020;48.682;9.024;2023-05-16T08:58:37;96291.00;;;10.06;99.98
4012;BME280;2020;48.682;9.024;2023-05-16T09:01:03;96288.72;;;10.03;99.75
4012;BME280;2020;48.682;9.024;2023-05-16T09:03:34;96290.38;;;10.12;100.00
4012;BME280;2020;48.682;9.024;2023-05-16T09:05:59;96295.69;;;10.02;99.54
4012;BME280;2020;48.682;9.024;2023-05-16T09:08:25;96291.66;;;10.08;99.98
4012;BME280;2020;48.682;9.024;2023-05-16T09:10:50;96294.94;;;10.10;100.00
4012;BME280;2020;48.682;9.024;2023-05-16T09:13:16;96298.50;;;10.09;99.70
4012;BME280;2020;48.682;9.024;2023-05-16T09:15:41;96298.47;;;10.01;99.54
4012;BME280;2020;48.682;9.024;2023-05-16T09:18:11;96295.22;;;9.99;100.00
4012;BME280;2020;48.682;9.024;2023-05-16T09:20:42;96304.00;;;10.06;99.67
4012;BME280;2020;48.682;9.024;2023-05-16T09:23:10;96298.66;;;10.16;99.93
4012;BME280;2020;48.682;9.024;2023-05-16T09:25:35;96295.63;;;10.20;98.62
4012;BME280;2020;48.682;9.024;2023-05-16T09:28:01;96290.78;;;10.34;100.00
4012;BME280;2020;48.682;9.024;2023-05-16T09:30:28;96290.44;;;10.29;97.73
4012;BME280;2020;48.682;9.024;2023-05-16T09:32:54;96295.97;;;10.34;98.00
4012;BME280;2020;48.682;9.024;2023-05-16T09:35:21;96294.69;;;10.38;97.28
4012;BME280;2020;48.682;9.024;2023-05-16T09:37:47;96299.22;;;10.28;96.29
4012;BME280;2020;48.682;9.024;2023-05-16T09:40:13;96307.13;;;10.18;97.20
4012;BME280;2020;48.682;9.024;2023-05-16T09:42:39;96298.88;;;10.22;98.04
4012;BME280;2020;48.682;9.024;2023-05-16T09:45:05;96301.97;;;10.34;98.41
4012;BME280;2020;48.682;9.024;2023-05-16T09:47:30;96294.75;;;10.46;97.87
4012;BME280;2020;48.682;9.024;2023-05-16T09:49:56;96288.91;;;10.52;97.15
4012;BME280;2020;48.682;9.024;2023-05-16T09:52:21;96290.53;;;10.53;96.17
4012;BME280;2020;48.682;9.024;2023-05-16T09:54:50;96292.47;;;10.51;96.24
4012;BME280;2020;48.682;9.024;2023-05-16T09:57:21;96285.31;;;10.45;96.56
4012;BME280;2020;48.682;9.024;2023-05-16T09:59:48;96287.91;;;10.45;96.62
4012;BME280;2020;48.682;9.024;2023-05-16T10:02:14;96288.25;;;10.59;96.31
4012;BME280;2020;48.682;9.024;2023-05-16T10:04:41;96271.38;;;10.71;94.69
4012;BME280;2020;48.682;9.024;2023-05-16T10:07:07;96275.59;;;10.80;94.15
4012;BME280;2020;48.682;9.024;2023-05-16T10:09:34;96282.94;;;10.93;94.01
4012;BME280;2020;48.682;9.024;2023-05-16T10:12:01;96280.16;;;11.03;94.57
4012;BME280;2020;48.682;9.024;2023-05-16T10:14:29;96279.53;;;11.09;93.46
4012;BME280;2020;48.682;9.024;2023-05-16T10:16:57;96286.34;;;11.02;92.99
4012;BME280;2020;48.682;9.024;2023-05-16T10:19:24;96276.44;;;10.81;93.66
4012;BME280;2020;48.682;9.024;2023-05-16T10:21:53;96273.97;;;10.79;95.51
4012;BME280;2020;48.682;9.024;2023-05-16T10:24:25;96272.34;;;10.78;95.40
4012;BME280;2020;48.682;9.024;2023-05-16T10:26:53;96274.63;;;10.73;95.51
4012;BME280;2020;48.682;9.024;2023-05-16T10:29:19;96278.84;;;10.66;94.39
4012;BME280;2020;48.682;9.024;2023-05-16T10:31:45;96283.56;;;10.62;95.31
4012;BME280;2020;48.682;9.024;2023-05-16T10:34:11;96298.34;;;10.62;95.11
4012;BME280;2020;48.682;9.024;2023-05-16T10:36:36;96289.56;;;10.55;96.17
4012;BME280;2020;48.682;9.024;2023-05-16T10:39:03;96295.50;;;10.38;94.91
4012;BME280;2020;48.682;9.024;2023-05-16T10:41:29;96288.84;;;10.36;95.99
4012;BME280;2020;48.682;9.024;2023-05-16T10:43:56;96288.22;;;10.42;95.53
4012;BME280;2020;48.682;9.024;2023-05-16T10:46:23;96287.22;;;10.35;96.42
4012;BME280;2020;48.682;9.024;2023-05-16T10:48:48;96286.88;;;10.38;95.74
4012;BME280;2020;48.682;9.024;2023-05-16T10:54:03;96286.28;;;10.44;94.65
4012;BME280;2020;48.682;9.024;2023-05-16T10:56:31;96285.31;;;10.53;94.42
4012;BME280;2020;48.682;9.024;2023-05-16T10:58:57;96289.91;;;10.60;93.25
4012;BME280;2020;48.682;9.024;2023-05-16T11:01:24;96283.41;;;10.64;94.00
4012;BME280;2020;48.682;9.024;2023-05-16T11:09:17;96282.75;;;10.62;93.80
4012;BME280;2020;48.682;9.024;2023-05-16T11:16:49;96301.19;;;10.34;94.48
4012;BME280;2020;48.682;9.024;2023-05-16T11:19:27;96307.50;;;10.31;96.30
4012;BME280;2020;48.682;9.024;2023-05-16T11:27:28;96317.34;;;10.11;98.57
4012;BME280;2020;48.682;9.024;2023-05-16T11:29:58;96318.16;;;10.12;98.60
4012;BME280;2020;48.682;9.024;2023-05-16T11:32:23;96320.31;;;10.16;100.00
4012;BME280;2020;48.682;9.024;2023-05-16T11:34:50;96321.94;;;10.17;100.00
4012;BME280;2020;48.682;9.024;2023-05-16T11:37:16;96324.19;;;10.12;100.00
4012;BME280;2020;48.682;9.024;2023-05-16T11:39:42;96329.06;;;10.15;100.00
4012;BME280;2020;48.682;9.024;2023-05-16T11:42:08;96336.84;;;10.07;100.00
4012;BME280;2020;48.682;9.024;2023-05-16T11:44:34;96333.53;;;9.97;100.00
4012;BME280;2020;48.682;9.024;2023-05-16T11:46:59;96328.28;;;9.88;100.00
4012;BME280;2020;48.682;9.024;2023-05-16T11:49:26;96332.72;;;9.96;100.00
4012;BME280;2020;48.682;9.024;2023-05-16T11:51:53;96336.38;;;9.85;100.00
4012;BME280;2020;48.682;9.024;2023-05-16T11:54:19;96335.09;;;9.89;100.00
4012;BME280;2020;48.682;9.024;2023-05-16T11:56:44;96341.22;;;9.80;100.00
4012;BME280;2020;48.682;9.024;2023-05-16T11:59:10;96339.28;;;9.82;100.00
4012;BME280;2020;48.682;9.024;2023-05-16T12:01:37;96345.41;;;9.73;100.00
4012;BME280;2020;48.682;9.024;2023-05-16T12:04:09;96348.28;;;9.88;100.00
4012;BME280;2020;48.682;9.024;2023-05-16T12:06:36;96339.72;;;9.95;100.00
4012;BME280;2020;48.682;9.024;2023-05-16T12:09:06;96348.28;;;9.88;100.00
4012;BME280;2020;48.682;9.024;2023-05-16T12:11:36;96345.97;;;10.11;100.00
4012;BME280;2020;48.682;9.024;2023-05-16T12:14:03;96354.78;;;10.18;98.79
4012;BME280;2020;48.682;9.024;2023-05-16T12:16:29;96345.66;;;10.14;97.39
4012;BME280;2020;48.682;9.024;2023-05-16T12:18:55;96353.50;;;10.22;96.98
4012;BME280;2020;48.682;9.024;2023-05-16T12:21:21;96352.53;;;10.23;96.54
4012;BME280;2020;48.682;9.024;2023-05-16T12:23:46;96350.97;;;10.39;97.11
4012;BME280;2020;48.682;9.024;2023-05-16T12:26:11;96352.91;;;10.37;96.50
4012;BME280;2020;48.682;9.024;2023-05-16T12:28:37;96356.53;;;10.44;95.15
4012;BME280;2020;48.682;9.024;2023-05-16T12:31:10;96350.13;;;10.38;94.54
4012;BME280;2020;48.682;9.024;2023-05-16T12:33:36;96350.66;;;10.42;94.89
4012;BME280;2020;48.682;9.024;2023-05-16T12:36:02;96348.09;;;10.50;95.11
4012;BME280;2020;48.682;9.024;2023-05-16T12:38:28;96348.47;;;10.64;94.42
4012;BME280;2020;48.682;9.024;2023-05-16T12:40:57;96347.50;;;10.73;93.53
4012;BME280;2020;48.682;9.024;2023-05-16T12:43:23;96341.66;;;10.79;94.18
4012;BME280;2020;48.682;9.024;2023-05-16T12:45:53;96352.72;;;10.73;91.57
4012;BME280;2020;48.682;9.024;2023-05-16T12:48:19;96353.31;;;10.59;89.66
4012;BME280;2020;48.682;9.024;2023-05-16T12:50:44;96354.94;;;10.51;91.32
4012;BME280;2020;48.682;9.024;2023-05-16T12:53:13;96365.66;;;10.48;91.62
4012;BME280;2020;48.682;9.024;2023-05-16T12:55:39;96371.34;;;10.17;90.29
4012;BME280;2020;48.682;9.024;2023-05-16T12:58:04;96361.59;;;10.19;93.85
4012;BME280;2020;48.682;9.024;2023-05-16T13:00:30;96379.16;;;10.17;94.71
4012;BME280;2020;48.682;9.024;2023-05-16T13:02:58;96370.47;;;10.08;95.99
4012;BME280;2020;48.682;9.024;2023-05-16T13:05:23;96374.53;;;10.03;99.14
4012;BME280;2020;48.682;9.024;2023-05-16T13:07:49;96377.84;;;9.87;98.99
4012;BME280;2020;48.682;9.024;2023-05-16T13:10:18;96381.25;;;9.61;99.58
4012;BME280;2020;48.682;9.024;2023-05-16T13:12:43;96377.09;;;9.50;99.77
4012;BME280;2020;48.682;9.024;2023-05-16T13:15:10;96386.16;;;9.46;100.00
4012;BME280;2020;48.682;9.024;2023-05-16T13:17:40;96386.16;;;9.46;100.00
4012;BME280;2020;48.682;9.024;2023-05-16T13:20:06;96392.97;;;9.47;100.00
4012;BME280;2020;48.682;9.024;2023-05-16T13:22:37;96382.28;;;9.50;99.36
4012;BME280;2020;48.682;9.024;2023-05-16T13:25:03;96386.25;;;9.36;97.62
4012;BME280;2020;48.682;9.024;2023-05-16T13:27:29;96400.03;;;9.36;97.51
4012;BME280;2020;48.682;9.024;2023-05-16T13:29:54;96400.03;;;9.36;96.96
4012;BME280;2020;48.682;9.024;2023-05-16T13:32:19;96399.06;;;9.38;96.59
4012;BME280;2020;48.682;9.024;2023-05-16T13:34:44;96402.34;;;9.40;97.14
4012;BME280;2020;48.682;9.024;2023-05-16T13:37:10;96407.41;;;9.41;95.57
4012;BME280;2020;48.682;9.024;2023-05-16T13:39:35;96404.25;;;9.38;94.79
4012;BME280;2020;48.682;9.024;2023-05-16T13:42:00;96399.38;;;9.34;95.96
4012;BME280;2020;48.682;9.024;2023-05-16T13:44:27;96409.47;;;9.38;93.95